Time;durP1;ratioP1;P1;durP2;ratioP2;P2;SDS_P1;SDS_P2;PMS_P1;PMS_P2;Temp;Humidity;BMP_temperature;BMP_pressure;BME280_temperature;BME280_humidity;BME280_pressure;Samples;Min_cycle;Max_cycle;Signal;HPM_P1;HPM_P2
2022/07/03 00:00:06;;;;;;;1.90;1.57;;;;;;;17.71;50.45;99075.28;5096637;27;41269;-78
2022/07/03 00:02:39;;;;;;;1.53;1.43;;;;;;;17.67;50.29;99066.69;5114461;27;39740;-78
2022/07/03 00:05:07;;;;;;;1.40;1.30;;;;;;;17.59;50.37;99069.97;5097014;27;43010;-79
2022/07/03 00:07:37;;;;;;;1.27;1.17;;;;;;;17.61;50.55;99075.22;5114194;27;44400;-78
2022/07/03 00:10:06;;;;;;;1.23;1.13;;;;;;;17.51;50.36;99059.13;5114032;27;41266;-78
2022/07/03 00:12:33;;;;;;;1.00;1.00;;;;;;;17.51;50.36;99063.63;5097175;27;38884;-78
2022/07/03 00:15:03;;;;;;;1.27;1.17;;;;;;;17.52;50.72;99065.31;5113656;27;43346;-79
2022/07/03 00:17:31;;;;;;;1.23;1.13;;;;;;;17.48;50.77;99067.41;5132415;27;42731;-78
2022/07/03 00:19:58;;;;;;;1.17;1.07;;;;;;;17.45;51.04;99069.50;5113998;27;42129;-77
2022/07/03 00:22:27;;;;;;;1.60;1.20;;;;;;;17.42;50.90;99073.31;5113880;27;38855;-78
2022/07/03 00:25:02;;;;;;;1.50;1.10;;;;;;;17.32;51.69;99059.00;5098405;27;42553;-78
2022/07/03 00:27:32;;;;;;;1.50;1.17;;;;;;;17.04;51.94;99022.25;5117226;27;42860;-77
2022/07/03 00:30:04;;;;;;;1.47;1.23;;;;;;;17.27;51.78;99058.56;5099921;27;41325;-78
2022/07/03 00:32:32;;;;;;;1.73;1.53;;;;;;;17.18;52.54;99051.34;5114276;27;40180;-77
2022/07/03 00:35:00;;;;;;;2.13;1.83;;;;;;;17.20;52.22;99062.75;5099822;27;40810;-78
2022/07/03 00:37:29;;;;;;;1.87;1.60;;;;;;;17.16;52.43;99058.66;5099737;27;42780;-77
2022/07/03 00:39:58;;;;;;;1.60;1.50;;;;;;;17.13;52.52;99061.59;5116621;27;41212;-77
2022/07/03 00:42:28;;;;;;;2.90;1.80;;;;;;;17.10;52.79;99056.50;5100193;27;38755;-78
2022/07/03 00:44:58;;;;;;;2.97;1.60;;;;;;;17.08;52.96;99055.78;5117326;27;41549;-77
2022/07/03 00:47:28;;;;;;;3.20;1.70;;;;;;;17.02;53.17;99053.63;5135449;27;42807;-78
2022/07/03 00:49:58;;;;;;;2.10;1.50;;;;;;;16.98;53.34;99053.03;5116197;27;42239;-77
2022/07/03 00:52:26;;;;;;;1.93;1.60;;;;;;;16.95;53.21;99060.47;5117207;27;40660;-77
2022/07/03 00:54:54;;;;;;;1.87;1.33;;;;;;;16.92;53.22;99063.44;5135320;27;41734;-78
2022/07/03 00:57:24;;;;;;;1.70;1.40;;;;;;;16.88;53.29;99058.34;5116852;27;43835;-78
2022/07/03 00:59:52;;;;;;;1.57;1.47;;;;;;;16.85;53.56;99047.91;5099430;27;41349;-77
2022/07/03 01:02:36;;;;;;;1.80;1.60;;;;;;;16.82;54.79;99050.81;5117072;27;40002;-77
2022/07/03 01:05:10;;;;;;;5.10;1.77;;;;;;;16.66;54.59;99021.03;5116629;27;40962;-77
2022/07/03 01:07:52;;;;;;;1.73;1.63;;;;;;;16.77;55.12;99039.69;5113620;27;43735;-77
2022/07/03 01:10:41;;;;;;;2.37;1.60;;;;;;;16.75;55.22;99048.81;5116466;27;42328;-77
2022/07/03 01:13:18;;;;;;;1.27;1.17;;;;;;;16.68;54.76;99045.81;5113773;27;40959;-77
2022/07/03 01:15:57;;;;;;;1.60;1.50;;;;;;;16.68;55.40;99051.16;5115871;27;43061;-77
2022/07/03 01:18:36;;;;;;;1.47;1.23;;;;;;;16.64;55.20;99044.38;5099808;27;41660;-78
2022/07/03 01:21:10;;;;;;;1.80;1.60;;;;;;;16.61;55.20;99046.41;5116288;27;42386;-77
2022/07/03 01:24:04;;;;;;;1.70;1.50;;;;;;;16.51;55.37;99032.97;5116870;27;39053;-78
2022/07/03 01:26:39;;;;;;;1.43;1.33;;;;;;;16.45;55.06;99028.13;5103393;27;42524;-78
2022/07/03 01:29:09;;;;;;;1.73;1.27;;;;;;;16.49;55.27;99050.97;5099357;27;41418;-79
2022/07/03 01:31:40;;;;;;;1.37;1.27;;;;;;;16.46;54.97;99052.06;5116144;27;42951;-77
2022/07/03 01:34:13;;;;;;;1.47;1.37;;;;;;;16.43;54.97;99035.47;5116914;27;40176;-78
2022/07/03 01:36:43;;;;;;;1.67;1.10;;;;;;;16.41;55.46;99037.41;5115747;27;41555;-78
2022/07/03 01:39:12;;;;;;;1.27;1.13;;;;;;;16.19;55.32;99000.09;5116263;27;41802;-78
2022/07/03 01:41:42;;;;;;;1.30;1.20;;;;;;;16.37;55.34;99035.97;5115330;27;42570;-78
2022/07/03 01:44:14;;;;;;;2.00;1.60;;;;;;;16.34;55.61;99037.06;5099121;27;41327;-77
2022/07/03 01:46:45;;;;;;;1.30;1.13;;;;;;;16.33;55.92;99037.19;5098927;27;41926;-78
2022/07/03 01:49:14;;;;;;;1.33;1.23;;;;;;;16.23;56.05;99021.06;5099037;27;44626;-77
2022/07/03 01:51:43;;;;;;;1.40;1.30;;;;;;;16.20;56.08;99018.63;5133938;27;43271;-78
2022/07/03 01:54:11;;;;;;;1.10;1.00;;;;;;;16.21;56.10;99032.84;5116025;27;38999;-77
2022/07/03 01:56:39;;;;;;;1.33;1.23;;;;;;;16.20;55.97;99028.47;5098452;27;42151;-77
2022/07/03 01:59:08;;;;;;;1.70;1.60;;;;;;;16.17;56.10;99034.94;5116004;27;43487;-77
2022/07/03 02:01:46;;;;;;;2.20;1.47;;;;;;;16.13;56.39;99029.00;5115687;27;43235;-77
2022/07/03 02:04:24;;;;;;;1.13;1.03;;;;;;;16.10;56.69;99033.75;5112638;27;40734;-78
2022/07/03 02:07:02;;;;;;;2.37;1.40;;;;;;;16.06;56.62;99035.84;5133837;27;41875;-78
2022/07/03 02:09:41;;;;;;;1.63;1.53;;;;;;;15.93;56.52;99008.44;5098449;27;42113;-78
2022/07/03 02:12:14;;;;;;;1.27;1.13;;;;;;;16.00;56.41;99022.97;5098580;27;41522;-77
2022/07/03 02:14:54;;;;;;;1.37;1.10;;;;;;;15.94;56.80;99023.50;5115393;27;40274;-78
2022/07/03 02:17:23;;;;;;;1.20;1.10;;;;;;;15.79;56.79;99012.22;5098582;27;42323;-78
2022/07/03 02:19:54;;;;;;;1.20;1.10;;;;;;;15.92;56.85;99041.47;5115310;27;42539;-77
2022/07/03 02:22:28;;;;;;;1.70;1.43;;;;;;;15.90;57.02;99037.22;5098638;27;41581;-77
2022/07/03 02:25:02;;;;;;;1.20;1.10;;;;;;;15.88;56.74;99033.81;5098318;27;41169;-77
2022/07/03 02:27:33;;;;;;;1.10;1.00;;;;;;;15.85;57.26;99029.56;5098822;27;40461;-78
2022/07/03 02:30:04;;;;;;;1.37;1.13;;;;;;;15.84;56.87;99033.19;5097983;27;41776;-78
2022/07/03 02:32:39;;;;;;;1.43;1.33;;;;;;;15.84;56.71;99043.03;5112196;27;42367;-77
2022/07/03 02:35:09;;;;;;;1.43;1.30;;;;;;;15.81;56.96;99025.47;5114929;27;42378;-78
2022/07/03 02:37:45;;;;;;;2.33;1.50;;;;;;;15.77;57.85;99018.66;5115174;27;43741;-78
2022/07/03 02:40:21;;;;;;;1.23;1.17;;;;;;;15.79;57.66;99030.06;5113768;27;42992;-78
2022/07/03 02:43:04;;;;;;;1.20;1.10;;;;;;;15.76;57.55;99019.63;5115185;27;42915;-78
2022/07/03 02:45:41;;;;;;;1.50;1.40;;;;;;;15.74;57.30;99027.75;5098324;27;40019;-77
2022/07/03 02:48:19;;;;;;;1.07;0.97;;;;;;;15.71;57.27;99022.66;5111482;27;41859;-78
2022/07/03 02:50:51;;;;;;;1.93;1.40;;;;;;;15.71;57.53;99027.16;5114761;27;43239;-77
2022/07/03 02:53:28;;;;;;;1.40;1.30;;;;;;;15.38;57.49;98983.50;5130605;27;42410;-78
2022/07/03 02:56:05;;;;;;;1.17;1.07;;;;;;;15.67;57.52;99028.41;5097974;27;40699;-78
2022/07/03 02:58:50;;;;;;;1.10;1.00;;;;;;;15.66;57.22;99029.34;5114796;27;41874;-78
2022/07/03 03:01:36;;;;;;;1.20;1.10;;;;;;;15.65;57.74;99027.66;5115371;27;44544;-78
2022/07/03 03:04:12;;;;;;;1.47;1.23;;;;;;;15.63;57.59;99026.94;5114994;27;41646;-78
2022/07/03 03:06:43;;;;;;;1.20;1.10;;;;;;;15.60;57.69;99029.84;5114846;27;40699;-78
2022/07/03 03:09:20;;;;;;;0.97;0.87;;;;;;;15.58;58.10;99021.13;5115346;27;41955;-78
2022/07/03 03:11:49;;;;;;;0.90;0.90;;;;;;;15.56;58.03;99025.75;5097663;27;41729;-77
2022/07/03 03:14:21;;;;;;;1.10;1.10;;;;;;;15.53;57.84;99025.94;5115382;27;42188;-78
2022/07/03 03:16:53;;;;;;;1.27;1.00;;;;;;;15.52;57.87;99021.56;5098260;27;39065;-77
2022/07/03 03:19:23;;;;;;;1.53;1.10;;;;;;;15.50;58.26;99018.16;5097904;27;40641;-78
2022/07/03 03:21:59;;;;;;;1.10;1.00;;;;;;;15.39;58.45;99001.19;5097753;27;43189;-77
2022/07/03 03:24:27;;;;;;;1.20;1.10;;;;;;;15.48;58.11;99020.13;5130050;27;42428;-78
2022/07/03 03:26:55;;;;;;;1.53;1.07;;;;;;;15.46;58.29;99013.06;5114818;27;40964;-77
2022/07/03 03:29:24;;;;;;;1.13;1.03;;;;;;;15.46;58.59;99022.91;5133413;27;42550;-78
2022/07/03 03:31:53;;;;;;;1.73;1.20;;;;;;;15.46;58.59;99028.22;5114401;27;41650;-78
2022/07/03 03:34:21;;;;;;;1.20;1.10;;;;;;;15.42;58.32;99021.47;5132974;27;42248;-78
2022/07/03 03:36:49;;;;;;;1.00;1.00;;;;;;;15.39;58.62;99014.56;5097617;27;40159;-78
2022/07/03 03:39:17;;;;;;;0.90;0.90;;;;;;;15.45;58.78;99022.03;5114781;27;42438;-77
2022/07/03 03:41:45;;;;;;;1.00;0.90;;;;;;;15.34;58.91;99002.53;5132537;27;43671;-78
2022/07/03 03:44:13;;;;;;;1.13;1.03;;;;;;;15.46;59.03;99023.75;5097478;27;43588;-77
2022/07/03 03:46:41;;;;;;;1.07;1.00;;;;;;;15.35;58.95;99004.22;5114413;27;39887;-77
2022/07/03 03:49:10;;;;;;;1.30;1.20;;;;;;;15.49;59.21;99016.47;5114972;27;42936;-78
2022/07/03 03:51:37;;;;;;;1.00;0.80;;;;;;;15.51;59.11;99027.88;5097317;27;43057;-77
2022/07/03 03:54:05;;;;;;;1.00;0.90;;;;;;;15.54;59.20;99030.31;5097123;27;41371;-78
2022/07/03 03:56:33;;;;;;;1.13;1.00;;;;;;;15.56;59.92;99029.25;5097145;27;41619;-78
2022/07/03 03:59:01;;;;;;;1.37;1.27;;;;;;;15.59;60.38;99033.47;5116656;27;42856;-78
2022/07/03 04:01:28;;;;;;;1.33;1.20;;;;;;;15.62;60.12;99028.75;5117774;27;44166;-78
2022/07/03 04:03:57;;;;;;;1.10;1.10;;;;;;;15.65;60.29;99031.19;5118039;27;42343;-78
2022/07/03 04:06:26;;;;;;;1.33;1.23;;;;;;;15.70;60.24;99036.97;5136203;27;40834;-78
2022/07/03 04:08:54;;;;;;;1.30;1.20;;;;;;;15.75;59.86;99040.13;5100718;27;42284;-78
2022/07/03 04:11:21;;;;;;;1.60;1.50;;;;;;;15.80;59.98;99051.31;5100462;27;43331;-78
2022/07/03 04:13:49;;;;;;;1.10;1.00;;;;;;;15.86;60.01;99057.97;5100545;27;43797;-77
2022/07/03 04:16:17;;;;;;;1.60;1.17;;;;;;;15.94;59.81;99060.03;5135988;27;41774;-78
2022/07/03 04:18:44;;;;;;;2.70;1.20;;;;;;;16.00;59.61;99049.69;5100487;27;42919;-78
2022/07/03 04:21:13;;;;;;;1.20;1.10;;;;;;;16.09;59.76;99054.25;5117365;27;43643;-78
2022/07/03 04:23:43;;;;;;;1.00;1.00;;;;;;;16.19;59.35;99056.22;5100538;27;43867;-78
2022/07/03 04:26:11;;;;;;;1.00;1.00;;;;;;;16.28;59.27;99052.75;5117341;27;40573;-78
2022/07/03 04:28:38;;;;;;;1.23;1.13;;;;;;;16.37;59.27;99057.34;5100534;27;42344;-78
2022/07/03 04:31:06;;;;;;;1.00;1.00;;;;;;;16.42;59.16;99050.66;5116940;27;44450;-78
2022/07/03 04:33:34;;;;;;;1.20;1.10;;;;;;;16.54;59.05;99070.16;5117427;27;43699;-78
2022/07/03 04:36:01;;;;;;;1.17;1.07;;;;;;;16.65;58.86;99063.94;5117127;27;41127;-79
2022/07/03 04:38:29;;;;;;;1.20;1.07;;;;;;;16.73;58.97;99062.31;5135611;27;41781;-77
2022/07/03 04:40:58;;;;;;;0.97;0.97;;;;;;;16.82;58.74;99058.84;5099373;27;43156;-78
2022/07/03 04:43:26;;;;;;;1.30;1.20;;;;;;;16.93;58.76;99059.78;5100464;27;42869;-78
2022/07/03 04:45:53;;;;;;;1.30;1.20;;;;;;;17.00;58.83;99061.78;5135520;27;40882;-78
2022/07/03 04:48:21;;;;;;;0.97;0.97;;;;;;;17.05;58.63;99048.03;5117589;27;41755;-78
2022/07/03 04:50:49;;;;;;;1.50;1.20;;;;;;;17.12;58.52;99050.03;5135742;27;43517;-78
2022/07/03 04:53:16;;;;;;;1.20;1.10;;;;;;;17.34;58.46;99073.09;5117125;27;42099;-78
2022/07/03 04:55:44;;;;;;;1.63;1.50;;;;;;;17.45;58.49;99075.69;5116919;27;40474;-78
2022/07/03 04:58:13;;;;;;;2.63;1.50;;;;;;;17.57;58.60;99087.16;5116995;27;42177;-78
2022/07/03 05:00:41;;;;;;;1.10;1.00;;;;;;;17.67;58.50;99084.59;5116672;27;42558;-78
2022/07/03 05:03:09;;;;;;;2.13;1.27;;;;;;;17.78;58.38;99084.47;5099891;27;41112;-78
2022/07/03 05:05:37;;;;;;;1.67;1.50;;;;;;;17.85;58.81;99082.94;5099516;27;39878;-78
2022/07/03 05:08:06;;;;;;;1.17;1.07;;;;;;;17.98;58.56;99082.69;5099860;27;41974;-78
2022/07/03 05:10:33;;;;;;;1.50;1.40;;;;;;;18.08;58.85;99087.09;5116158;27;42761;-78
2022/07/03 05:13:01;;;;;;;1.40;1.30;;;;;;;18.20;58.52;99087.81;5099826;27;42365;-78
2022/07/03 05:15:30;;;;;;;1.50;1.40;;;;;;;18.29;58.21;99085.19;5099644;27;38855;-78
2022/07/03 05:17:58;;;;;;;2.00;1.57;;;;;;;18.42;57.89;99089.44;5116837;27;41806;-78
2022/07/03 05:20:28;;;;;;;2.60;1.60;;;;;;;18.52;57.93;99090.28;5116543;27;43374;-78
2022/07/03 05:22:56;;;;;;;2.73;1.70;;;;;;;18.62;57.87;99085.78;5116725;27;41590;-78
2022/07/03 05:25:25;;;;;;;1.77;1.50;;;;;;;18.74;57.59;99095.41;5116693;27;39724;-78
2022/07/03 05:27:54;;;;;;;1.70;1.60;;;;;;;18.85;57.80;99097.94;5116578;27;41786;-78
2022/07/03 05:30:22;;;;;;;1.70;1.60;;;;;;;18.95;57.81;99093.41;5116341;27;43232;-77
2022/07/03 05:32:53;;;;;;;1.63;1.50;;;;;;;18.97;57.40;99079.84;5134716;27;42077;-78
2022/07/03 05:35:21;;;;;;;1.60;1.50;;;;;;;19.21;56.88;99103.53;5116747;27;41826;-78
2022/07/03 05:37:49;;;;;;;1.33;1.20;;;;;;;19.31;57.08;99107.88;5099256;27;42560;-78
2022/07/03 05:40:17;;;;;;;1.50;1.40;;;;;;;19.42;56.81;99100.66;5116387;27;42866;-77
2022/07/03 05:42:46;;;;;;;1.47;1.37;;;;;;;19.55;56.54;99106.56;5116082;27;42540;-78
2022/07/03 05:45:13;;;;;;;1.40;1.30;;;;;;;19.66;56.64;99107.25;5115993;27;40190;-77
2022/07/03 05:47:41;;;;;;;1.57;1.30;;;;;;;19.75;56.27;99104.69;5116692;27;42101;-78
2022/07/03 05:50:11;;;;;;;1.40;1.30;;;;;;;19.92;55.83;99109.25;5098890;27;43056;-78
2022/07/03 05:52:39;;;;;;;2.93;1.50;;;;;;;20.10;55.68;99115.53;5099918;27;41272;-78
2022/07/03 05:55:07;;;;;;;1.40;1.30;;;;;;;20.24;55.11;99115.03;5134504;27;41481;-78
2022/07/03 05:57:35;;;;;;;1.70;1.33;;;;;;;20.44;55.02;99111.25;5115808;27;41904;-78
2022/07/03 06:00:04;;;;;;;1.50;1.37;;;;;;;20.69;54.40;99111.50;5115932;27;41678;-78
2022/07/03 06:02:33;;;;;;;1.50;1.40;;;;;;;20.85;54.08;99108.97;5115675;27;43233;-78
2022/07/03 06:05:01;;;;;;;1.60;1.50;;;;;;;20.96;53.75;99100.66;5098810;27;40206;-78
2022/07/03 06:07:30;;;;;;;1.50;1.40;;;;;;;21.06;53.93;99098.72;5115899;27;42462;-78
2022/07/03 06:09:58;;;;;;;1.60;1.50;;;;;;;21.19;52.85;99110.94;5134188;27;42777;-78
2022/07/03 06:12:26;;;;;;;1.33;1.20;;;;;;;21.22;52.18;99110.66;5134137;27;41961;-78
2022/07/03 06:14:54;;;;;;;1.33;1.23;;;;;;;21.39;52.01;99118.66;5115692;27;39258;-78
2022/07/03 06:17:22;;;;;;;1.67;1.40;;;;;;;21.53;51.51;99119.94;5115338;27;42736;-78
2022/07/03 06:19:49;;;;;;;1.20;1.10;;;;;;;21.66;51.64;99120.34;5133674;27;43988;-77
2022/07/03 06:22:17;;;;;;;2.37;1.30;;;;;;;21.80;51.71;99111.69;5114373;27;42382;-77
2022/07/03 06:24:46;;;;;;;1.50;1.40;;;;;;;21.84;51.47;99102.28;5115289;27;39962;-78
2022/07/03 06:27:14;;;;;;;3.03;1.30;;;;;;;22.02;50.59;99101.34;5133913;27;42325;-78
2022/07/03 06:29:42;;;;;;;1.90;1.20;;;;;;;22.18;50.69;99112.22;5097799;27;44608;-77
2022/07/03 06:32:10;;;;;;;1.57;1.40;;;;;;;22.30;50.55;99112.75;5133524;27;42242;-77
2022/07/03 06:34:37;;;;;;;1.37;1.30;;;;;;;22.46;50.82;99112.81;5133419;27;40089;-78
2022/07/03 06:37:05;;;;;;;3.87;1.50;;;;;;;22.51;50.00;99105.88;5098211;27;42485;-78
2022/07/03 06:39:33;;;;;;;1.57;1.47;;;;;;;22.68;50.33;99108.63;5114937;27;43006;-78
2022/07/03 06:42:02;;;;;;;1.53;1.43;;;;;;;22.87;49.41;99121.88;5114272;27;41122;-78
2022/07/03 06:44:30;;;;;;;1.70;1.30;;;;;;;23.27;48.82;99121.00;5115024;27;41008;-78
2022/07/03 06:46:58;;;;;;;1.30;1.03;;;;;;;23.64;48.34;99132.13;5133480;27;41788;-78
2022/07/03 06:49:26;;;;;;;1.87;1.37;;;;;;;23.77;47.80;99128.88;5115063;27;42713;-78
2022/07/03 06:51:54;;;;;;;2.03;1.30;;;;;;;23.72;47.88;99096.13;5114956;27;42309;-78
2022/07/03 06:54:22;;;;;;;1.00;1.00;;;;;;;24.05;47.20;99123.06;5114987;27;39987;-77
2022/07/03 06:56:49;;;;;;;2.77;1.20;;;;;;;24.15;46.81;99124.53;5097601;27;42361;-77
2022/07/03 06:59:19;;;;;;;1.33;1.07;;;;;;;24.12;46.77;99107.78;5133342;27;42785;-77
2022/07/03 07:01:46;;;;;;;1.47;1.10;;;;;;;24.28;46.60;99134.81;5132930;27;42283;-78
2022/07/03 07:04:14;;;;;;;1.47;1.37;;;;;;;24.35;46.89;99135.81;5114934;27;41279;-77
2022/07/03 07:06:41;;;;;;;1.20;1.17;;;;;;;24.47;46.62;99131.69;5097328;27;41709;-79
2022/07/03 07:09:09;;;;;;;1.37;1.27;;;;;;;24.73;46.05;99138.66;5097655;27;41784;-78
2022/07/03 07:11:37;;;;;;;1.30;1.20;;;;;;;25.06;45.40;99142.84;5114242;27;41803;-78
2022/07/03 07:14:05;;;;;;;1.33;1.23;;;;;;;25.37;44.37;99149.00;5114858;27;39817;-78
2022/07/03 07:16:34;;;;;;;1.67;1.10;;;;;;;25.65;44.06;99151.16;5097558;27;40670;-78
2022/07/03 07:19:02;;;;;;;1.03;1.03;;;;;;;25.58;43.80;99125.78;5097574;27;41787;-77
2022/07/03 07:21:30;;;;;;;1.07;1.07;;;;;;;25.53;44.73;99109.19;5114427;27;43023;-78
2022/07/03 07:23:58;;;;;;;1.00;0.90;;;;;;;25.75;44.11;99141.72;5114883;27;39866;-77
2022/07/03 07:26:26;;;;;;;1.10;1.10;;;;;;;25.77;43.89;99131.53;5114554;27;41591;-77
2022/07/03 07:28:53;;;;;;;1.03;1.03;;;;;;;25.93;44.11;99144.06;5097540;27;42987;-78
2022/07/03 07:31:21;;;;;;;1.33;1.10;;;;;;;26.13;43.05;99153.31;5114083;27;43306;-78
2022/07/03 07:33:50;;;;;;;1.93;1.37;;;;;;;26.51;43.08;99153.22;5132194;27;41000;-77
2022/07/03 07:36:18;;;;;;;1.73;1.43;;;;;;;27.45;40.54;99163.00;5114115;27;42807;-78
2022/07/03 07:38:46;;;;;;;1.00;1.00;;;;;;;28.90;39.43;99153.00;5132638;27;42581;-78
2022/07/03 07:41:14;;;;;;;1.07;1.00;;;;;;;29.93;37.23;99131.59;5097219;27;41840;-78
2022/07/03 07:43:41;;;;;;;1.10;1.10;;;;;;;31.25;34.79;99180.34;5097554;27;40058;-78
2022/07/03 07:46:09;;;;;;;1.30;1.20;;;;;;;32.22;33.43;99187.97;5114168;27;40499;-78
2022/07/03 07:48:37;;;;;;;1.20;1.10;;;;;;;33.29;31.74;99197.38;5114412;27;42904;-77
2022/07/03 07:51:06;;;;;;;1.27;1.27;;;;;;;33.80;31.02;99196.78;5114301;27;42317;-78
2022/07/03 07:53:33;;;;;;;1.40;1.10;;;;;;;33.62;31.36;99204.28;5132629;27;40661;-78
2022/07/03 07:56:01;;;;;;;1.17;1.17;;;;;;;33.32;31.41;99193.31;5113985;27;41926;-78
2022/07/03 07:58:29;;;;;;;0.93;0.90;;;;;;;33.42;31.40;99201.81;5096704;27;43079;-78
2022/07/03 08:06:28;;;;;;;1.27;1.17;;;;;;;36.33;27.76;99219.47;5113407;27;41970;-78
2022/07/03 08:08:56;;;;;;;1.30;1.20;;;;;;;37.73;25.82;99226.09;5113687;27;43382;-78
2022/07/03 08:11:23;;;;;;;0.93;0.93;;;;;;;39.35;24.49;99226.19;5132218;27;43031;-78
2022/07/03 08:13:52;;;;;;;1.30;1.00;;;;;;;40.97;22.61;99230.78;5113628;27;38849;-78
2022/07/03 08:16:19;;;;;;;1.15;1.05;;;;;;;42.16;20.43;99232.19;5131979;27;41960;-77
2022/07/03 08:18:47;;;;;;;1.38;1.00;;;;;;;43.14;19.73;99241.97;5113503;27;43574;-76
2022/07/03 08:21:15;;;;;;;1.00;1.00;;;;;;;44.03;19.92;99242.00;5113104;27;43842;-77
2022/07/03 08:23:44;;;;;;;0.80;0.80;;;;;;;44.90;18.71;99238.41;5113890;27;39861;-77
2022/07/03 08:26:12;;;;;;;0.73;0.73;;;;;;;45.41;17.83;99238.13;5131675;27;41839;-77
2022/07/03 08:28:40;;;;;;;0.90;0.90;;;;;;;45.57;17.14;99245.06;5113608;27;42858;-77
2022/07/03 08:31:07;;;;;;;0.80;0.80;;;;;;;45.19;17.58;99241.72;5096134;27;42374;-77
2022/07/03 08:33:35;;;;;;;0.93;0.90;;;;;;;44.53;18.18;99228.25;5131947;27;39892;-77
2022/07/03 08:36:05;;;;;;;0.93;0.90;;;;;;;44.33;18.28;99224.72;5113429;27;41146;-77
2022/07/03 08:38:34;;;;;;;1.05;0.95;;;;;;;43.96;18.41;99217.28;5131758;27;43744;-77
2022/07/03 08:41:05;;;;;;;1.33;0.93;;;;;;;43.67;18.59;99225.84;5112742;27;43189;-77
2022/07/03 08:43:33;;;;;;;0.95;0.95;;;;;;;43.69;19.10;99206.03;5113531;27;40375;-76
2022/07/03 08:46:03;;;;;;;1.08;1.02;;;;;;;43.76;19.17;99205.66;5115445;27;41675;-77
2022/07/03 08:48:34;;;;;;;0.90;0.90;;;;;;;44.13;18.94;99205.56;5135399;27;42693;-76
2022/07/03 08:51:02;;;;;;;1.20;1.00;;;;;;;44.72;18.42;99209.44;5133787;27;42297;-77
2022/07/03 08:53:30;;;;;;;0.80;0.80;;;;;;;45.10;17.47;99216.44;5116868;27;40380;-77
2022/07/03 08:55:58;;;;;;;0.90;0.90;;;;;;;45.17;17.13;99215.22;5116781;27;40785;-77
2022/07/03 08:58:31;;;;;;;1.60;1.50;;;;;;;44.66;18.05;99205.06;5116725;27;42085;-77
2022/07/03 09:00:59;;;;;;;1.13;1.00;;;;;;;43.56;18.64;99204.81;5115796;27;43268;-77
2022/07/03 09:03:27;;;;;;;0.90;0.90;;;;;;;42.80;18.61;99179.97;5135073;27;40042;-76
2022/07/03 09:05:55;;;;;;;1.02;1.02;;;;;;;43.03;18.31;99201.38;5099031;27;43683;-77
2022/07/03 09:08:24;;;;;;;1.45;1.02;;;;;;;43.38;18.61;99188.94;5134973;27;42738;-77
2022/07/03 09:10:52;;;;;;;1.40;1.30;;;;;;;43.62;18.71;99198.06;5134555;27;42338;-77
2022/07/03 09:13:20;;;;;;;1.00;1.00;;;;;;;44.09;17.36;99198.09;5099768;27;40917;-77
2022/07/03 09:15:49;;;;;;;0.80;0.80;;;;;;;44.60;17.53;99187.59;5116405;27;42459;-77
2022/07/03 09:18:17;;;;;;;1.10;1.00;;;;;;;44.50;18.22;99178.63;5115714;27;43217;-77
2022/07/03 09:20:45;;;;;;;1.02;1.00;;;;;;;44.23;17.08;99201.75;5098840;27;41310;-78
2022/07/03 09:23:17;;;;;;;1.45;0.80;;;;;;;44.60;17.50;99182.00;5116494;27;41500;-77
2022/07/03 09:25:52;;;;;;;1.13;0.90;;;;;;;45.56;17.39;99189.41;5099115;27;40854;-77
2022/07/03 09:28:21;;;;;;;1.30;0.90;;;;;;;45.80;16.19;99187.94;5134859;27;42327;-77
2022/07/03 09:31:02;;;;;;;0.73;0.73;;;;;;;45.07;16.42;99200.28;5116212;27;42365;-77
2022/07/03 09:33:29;;;;;;;1.20;1.10;;;;;;;44.32;17.76;99181.16;5116355;27;38993;-77
2022/07/03 09:35:57;;;;;;;1.00;0.90;;;;;;;43.67;17.00;99189.56;5098295;27;40726;-77
2022/07/03 09:38:25;;;;;;;0.80;0.80;;;;;;;43.32;17.79;99178.97;5099018;27;43888;-78
2022/07/03 09:40:55;;;;;;;1.80;1.00;;;;;;;43.32;18.33;99167.81;5115254;27;42908;-77
2022/07/03 09:43:25;;;;;;;1.08;1.00;;;;;;;44.15;17.23;99161.38;5116180;27;40873;-77
2022/07/03 09:45:55;;;;;;;1.00;0.90;;;;;;;45.62;16.70;99166.59;5098930;27;41656;-77
2022/07/03 09:48:41;;;;;;;0.95;0.95;;;;;;;46.75;14.45;99176.38;5098914;27;41749;-78
2022/07/03 09:51:15;;;;;;;1.05;0.80;;;;;;;47.70;14.43;99180.09;5115043;27;43320;-77
2022/07/03 09:53:54;;;;;;;1.17;0.80;;;;;;;48.58;14.23;99191.59;5116072;27;38979;-78
2022/07/03 09:56:24;;;;;;;0.60;0.60;;;;;;;48.48;14.13;99175.09;5133249;27;41693;-77
2022/07/03 09:59:07;;;;;;;1.00;1.00;;;;;;;48.94;13.72;99179.00;5115598;27;42770;-78
2022/07/03 10:01:35;;;;;;;0.70;0.70;;;;;;;48.78;13.16;99175.09;5114923;27;43326;-77
2022/07/03 10:04:12;;;;;;;1.75;0.88;;;;;;;48.10;13.29;99182.69;5115591;27;41124;-77
2022/07/03 10:06:51;;;;;;;0.80;0.80;;;;;;;47.10;14.66;99172.53;5115209;27;40667;-77
2022/07/03 10:09:20;;;;;;;0.70;0.70;;;;;;;46.03;15.40;99168.31;5130697;27;43812;-77
2022/07/03 10:11:49;;;;;;;0.80;0.80;;;;;;;44.96;15.37;99159.72;5115647;27;41642;-78
2022/07/03 10:14:19;;;;;;;0.73;0.73;;;;;;;43.98;16.10;99155.59;5133638;27;40708;-77
2022/07/03 10:16:49;;;;;;;0.80;0.80;;;;;;;43.35;16.99;99151.31;5098421;27;41146;-77
2022/07/03 10:19:20;;;;;;;0.90;0.90;;;;;;;42.90;16.82;99146.44;5097907;27;43273;-78
2022/07/03 10:21:53;;;;;;;0.80;0.80;;;;;;;42.58;17.48;99136.78;5115310;27;43069;-77
2022/07/03 10:24:23;;;;;;;0.90;0.88;;;;;;;41.71;18.42;99113.78;5098161;27;40370;-78
2022/07/03 10:26:51;;;;;;;1.42;1.00;;;;;;;40.97;19.07;99123.25;5098006;27;40666;-76
2022/07/03 10:29:22;;;;;;;0.80;0.80;;;;;;;41.12;19.09;99119.53;5114868;27;42894;-78
2022/07/03 10:31:49;;;;;;;0.82;0.82;;;;;;;41.25;18.85;99121.69;5114780;27;42398;-78
2022/07/03 10:34:21;;;;;;;1.40;0.90;;;;;;;41.10;18.31;99124.53;5133256;27;40852;-77
2022/07/03 10:36:53;;;;;;;0.80;0.80;;;;;;;40.90;19.65;99125.53;5114864;27;41183;-78
2022/07/03 10:39:45;;;;;;;0.90;0.90;;;;;;;40.93;18.45;99122.16;5114703;27;44625;-77
2022/07/03 10:45:11;;;;;;;1.10;1.10;;;;;;;40.15;19.75;99114.44;5097421;27;39750;-76
2022/07/03 10:47:46;;;;;;;2.92;1.20;;;;;;;39.62;19.98;99102.03;5130086;27;42777;-77
2022/07/03 10:50:17;;;;;;;2.33;1.10;;;;;;;39.08;21.17;99099.78;5097314;27;41741;-76
2022/07/03 10:52:45;;;;;;;0.80;0.80;;;;;;;38.66;20.90;99099.97;5097808;27;41182;-76
2022/07/03 10:55:14;;;;;;;0.90;0.90;;;;;;;38.33;21.18;99103.16;5133328;27;41896;-76
2022/07/03 10:57:44;;;;;;;0.80;0.80;;;;;;;38.32;21.14;99094.03;5114691;27;41743;-76
2022/07/03 11:00:17;;;;;;;0.80;0.80;;;;;;;38.23;21.80;99087.34;5114303;27;41848;-79
2022/07/03 11:02:53;;;;;;;1.13;1.00;;;;;;;38.22;20.56;99087.59;5097490;27;41538;-78
2022/07/03 11:05:26;;;;;;;0.80;0.80;;;;;;;38.19;21.74;99075.16;5112272;27;40905;-78
2022/07/03 11:08:22;;;;;;;0.90;0.90;;;;;;;38.14;21.01;99082.59;5110755;27;42734;-77
2022/07/03 11:11:54;;;;;;;1.15;0.70;;;;;;;38.27;21.39;99071.03;5114196;27;41685;-76
2022/07/03 11:14:16;;;;;;;0.93;0.90;;;;;;;38.29;21.99;99060.53;5114312;27;42235;-78
2022/07/03 11:16:47;;;;;;;0.70;0.70;;;;;;;38.22;21.80;99060.75;5101087;27;40042;-78
2022/07/03 11:19:15;;;;;;;1.00;1.00;;;;;;;38.24;21.46;99066.03;5114413;27;41639;-80
2022/07/03 11:21:51;;;;;;;0.80;0.80;;;;;;;38.23;21.73;99065.19;5114410;27;42720;-79
2022/07/03 11:24:39;;;;;;;1.47;1.10;;;;;;;38.35;21.71;99064.97;5097297;27;42196;-78
2022/07/03 11:27:14;;;;;;;0.90;0.90;;;;;;;38.28;21.28;99058.88;5133302;27;40102;-78
2022/07/03 11:29:42;;;;;;;0.77;0.77;;;;;;;38.24;20.64;99057.72;5129737;27;42058;-78
2022/07/03 11:32:59;;;;;;;0.73;0.73;;;;;;;38.33;21.47;99045.06;5114424;27;43780;-78
2022/07/03 11:35:51;;;;;;;1.48;1.10;;;;;;;38.51;21.50;99038.16;5046912;28;42329;-77
2022/07/03 11:38:28;;;;;;;0.75;0.75;;;;;;;38.67;21.23;99039.91;5097022;27;40166;-79
2022/07/03 11:40:57;;;;;;;0.80;0.80;;;;;;;38.83;21.22;99046.28;5130900;27;41742;-78
2022/07/03 11:43:25;;;;;;;0.90;0.90;;;;;;;39.13;21.60;99036.09;5113910;27;42521;-78
2022/07/03 11:45:53;;;;;;;0.73;0.73;;;;;;;39.35;19.99;99030.25;5131943;27;42172;-78
2022/07/03 11:48:22;;;;;;;0.85;0.85;;;;;;;39.71;19.18;99035.75;5132463;27;42050;-78
2022/07/03 11:50:51;;;;;;;0.90;0.90;;;;;;;40.09;20.29;99037.03;5096388;27;42249;-78
2022/07/03 11:53:28;;;;;;;0.90;0.90;;;;;;;41.37;18.73;99041.50;5096795;27;42057;-77
2022/07/03 11:55:59;;;;;;;0.80;0.80;;;;;;;42.34;17.40;99054.38;5130928;27;43153;-79
2022/07/03 11:58:41;;;;;;;0.70;0.70;;;;;;;42.70;17.43;99051.94;5110840;27;39736;-79